createdAt,value
2022-11-02T00:02:14.831Z,100.00
2022-11-02T00:04:43.598Z,100.00
2022-11-02T00:07:10.992Z,100.00
2022-11-02T00:09:38.271Z,100.00
2022-11-02T00:12:06.019Z,100.00
2022-11-02T00:14:33.598Z,100.00
2022-11-02T00:17:03.226Z,100.00
2022-11-02T00:19:31.244Z,100.00
2022-11-02T00:22:00.352Z,100.00
2022-11-02T00:24:30.088Z,100.00
2022-11-02T00:26:57.497Z,100.00
2022-11-02T00:29:27.834Z,100.00
2022-11-02T00:31:58.652Z,100.00
2022-11-02T00:34:26.665Z,100.00
2022-11-02T00:36:55.615Z,100.00
2022-11-02T00:39:23.314Z,100.00
2022-11-02T00:41:51.813Z,100.00
2022-11-02T00:44:20.525Z,100.00
2022-11-02T00:46:49.234Z,100.00
2022-11-02T00:49:18.148Z,100.00
2022-11-02T00:51:46.454Z,100.00
2022-11-02T00:54:15.545Z,100.00
2022-11-02T00:56:46.026Z,100.00
2022-11-02T00:59:13.605Z,100.00
2022-11-02T01:01:51.923Z,100.00
2022-11-02T01:04:19.494Z,100.00
2022-11-02T01:06:47.074Z,100.00
2022-11-02T01:09:16.913Z,100.00
2022-11-02T01:11:44.552Z,100.00
2022-11-02T01:14:12.056Z,100.00
2022-11-02T01:16:41.569Z,100.00
2022-11-02T01:19:09.076Z,100.00
2022-11-02T01:21:36.299Z,100.00
2022-11-02T01:24:04.279Z,100.00
2022-11-02T01:26:34.005Z,100.00
2022-11-02T01:29:03.720Z,100.00
2022-11-02T01:31:31.455Z,100.00
2022-11-02T01:33:59.330Z,100.00
2022-11-02T01:36:26.762Z,100.00
2022-11-02T01:38:57.083Z,100.00
2022-11-02T01:41:25.589Z,100.00
2022-11-02T01:43:56.786Z,100.00
2022-11-02T01:46:33.977Z,100.00
2022-11-02T01:49:11.556Z,100.00
2022-11-02T01:52:02.834Z,100.00
2022-11-02T01:54:40.634Z,100.00
2022-11-02T01:57:14.705Z,100.00
2022-11-02T01:59:58.575Z,100.00
2022-11-02T02:02:28.196Z,100.00
2022-11-02T02:05:09.695Z,100.00
2022-11-02T02:07:40.485Z,100.00
2022-11-02T02:10:10.058Z,100.00
2022-11-02T02:12:39.773Z,100.00
2022-11-02T02:15:10.431Z,100.00
2022-11-02T02:17:43.092Z,100.00
2022-11-02T02:20:31.123Z,100.00
2022-11-02T02:23:25.130Z,100.00
2022-11-02T02:26:06.134Z,100.00
2022-11-02T02:29:03.584Z,100.00
2022-11-02T02:31:36.882Z,100.00
2022-11-02T02:34:27.416Z,100.00
2022-11-02T02:37:04.118Z,100.00
2022-11-02T02:39:43.527Z,100.00
2022-11-02T02:42:21.150Z,100.00
2022-11-02T02:45:10.460Z,100.00
2022-11-02T02:47:46.498Z,100.00
2022-11-02T02:50:29.052Z,100.00
2022-11-02T02:53:01.266Z,100.00
2022-11-02T02:55:34.540Z,100.00
2022-11-02T02:58:05.510Z,100.00
2022-11-02T03:00:36.222Z,100.00
2022-11-02T03:03:17.036Z,100.00
2022-11-02T03:06:10.769Z,100.00
2022-11-02T03:08:43.714Z,100.00
2022-11-02T03:11:23.410Z,100.00
2022-11-02T03:14:13.011Z,100.00
2022-11-02T03:17:02.524Z,100.00
2022-11-02T03:19:42.675Z,100.00
2022-11-02T03:22:37.671Z,100.00
2022-11-02T03:25:29.281Z,100.00
2022-11-02T03:28:02.004Z,100.00
2022-11-02T03:30:38.712Z,100.00
2022-11-02T03:33:26.601Z,100.00
2022-11-02T03:36:09.779Z,100.00
2022-11-02T03:38:52.895Z,100.00
2022-11-02T03:41:24.018Z,100.00
2022-11-02T03:43:59.061Z,100.00
2022-11-02T03:46:32.723Z,100.00
2022-11-02T03:49:08.458Z,100.00
2022-11-02T03:51:39.880Z,100.00
2022-11-02T03:54:13.915Z,100.00
2022-11-02T03:56:47.187Z,100.00
2022-11-02T03:59:16.875Z,100.00
2022-11-02T04:01:51.947Z,100.00
2022-11-02T04:04:23.093Z,100.00
2022-11-02T04:06:53.587Z,100.00
2022-11-02T04:09:21.599Z,100.00
2022-11-02T04:12:07.984Z,100.00
2022-11-02T04:14:39.136Z,100.00
2022-11-02T04:20:02.900Z,100.00
2022-11-02T04:22:49.578Z,100.00
2022-11-02T04:25:19.672Z,100.00
2022-11-02T04:28:08.025Z,100.00
2022-11-02T04:30:40.686Z,100.00
2022-11-02T04:33:27.096Z,100.00
2022-11-02T04:36:06.615Z,100.00
2022-11-02T04:38:42.438Z,100.00
2022-11-02T04:41:43.653Z,100.00
2022-11-02T04:44:23.612Z,100.00
2022-11-02T04:47:00.891Z,100.00
2022-11-02T04:49:32.380Z,100.00
2022-11-02T04:52:00.830Z,100.00
2022-11-02T04:54:29.986Z,100.00
2022-11-02T04:57:02.379Z,100.00
2022-11-02T04:59:31.623Z,100.00
2022-11-02T05:02:00.009Z,100.00
2022-11-02T05:04:28.347Z,100.00
2022-11-02T05:07:01.289Z,100.00
2022-11-02T05:09:31.271Z,100.00
2022-11-02T05:11:58.791Z,100.00
2022-11-02T05:14:32.057Z,100.00
2022-11-02T05:17:01.936Z,100.00
2022-11-02T05:19:29.930Z,100.00
2022-11-02T05:21:59.706Z,100.00
2022-11-02T05:24:32.919Z,100.00
2022-11-02T05:27:02.191Z,100.00
2022-11-02T05:29:32.279Z,100.00
2022-11-02T05:31:59.581Z,100.00
2022-11-02T05:34:28.196Z,100.00
2022-11-02T05:36:56.415Z,100.00
2022-11-02T05:39:23.745Z,100.00
2022-11-02T05:41:52.544Z,100.00
2022-11-02T05:44:20.005Z,100.00
2022-11-02T05:46:51.091Z,100.00
2022-11-02T05:49:19.304Z,100.00
2022-11-02T05:51:46.694Z,100.00
2022-11-02T05:54:15.079Z,100.00
2022-11-02T05:56:43.295Z,100.00
2022-11-02T05:59:12.638Z,100.00
2022-11-02T06:01:40.166Z,100.00
2022-11-02T06:04:07.812Z,100.00
2022-11-02T06:06:35.265Z,100.00
2022-11-02T06:09:07.079Z,100.00
2022-11-02T06:11:37.855Z,100.00
2022-11-02T06:14:05.362Z,100.00
2022-11-02T06:16:32.833Z,100.00
2022-11-02T06:19:00.096Z,100.00
2022-11-02T06:21:28.404Z,100.00
2022-11-02T06:23:59.054Z,100.00
2022-11-02T06:26:28.099Z,100.00
2022-11-02T06:28:58.531Z,100.00
2022-11-02T06:31:28.787Z,100.00
2022-11-02T06:33:56.160Z,100.00
2022-11-02T06:36:25.869Z,100.00
2022-11-02T06:38:53.306Z,100.00
2022-11-02T06:41:21.579Z,100.00
2022-11-02T06:43:48.929Z,100.00
2022-11-02T06:46:16.652Z,100.00
2022-11-02T06:48:46.800Z,100.00
2022-11-02T06:51:14.215Z,100.00
2022-11-02T06:53:41.820Z,100.00
2022-11-02T06:56:12.472Z,100.00
2022-11-02T06:58:40.631Z,100.00
2022-11-02T07:01:09.105Z,100.00
2022-11-02T07:03:36.792Z,100.00
2022-11-02T07:06:07.401Z,100.00
2022-11-02T07:08:40.573Z,100.00
2022-11-02T07:11:08.306Z,100.00
2022-11-02T07:13:36.013Z,100.00
2022-11-02T07:16:03.395Z,100.00
2022-11-02T07:18:31.039Z,100.00
2022-11-02T07:21:02.643Z,100.00
2022-11-02T07:23:31.109Z,100.00
2022-11-02T07:25:59.375Z,100.00
2022-11-02T07:28:28.095Z,100.00
2022-11-02T07:30:56.007Z,100.00
2022-11-02T07:33:24.570Z,100.00
2022-11-02T07:35:52.069Z,100.00
2022-11-02T07:38:20.301Z,100.00
2022-11-02T07:40:49.943Z,100.00
2022-11-02T07:43:17.787Z,100.00
2022-11-02T07:45:56.689Z,100.00
2022-11-02T07:48:26.675Z,100.00
2022-11-02T07:50:54.212Z,100.00
2022-11-02T07:53:24.111Z,100.00
2022-11-02T07:55:51.497Z,100.00
2022-11-02T07:58:19.949Z,100.00
2022-11-02T08:00:48.667Z,100.00
2022-11-02T08:03:17.361Z,100.00
2022-11-02T08:05:44.929Z,100.00
2022-11-02T08:08:15.806Z,99.28
2022-11-02T08:10:44.656Z,97.10
2022-11-02T08:13:20.547Z,95.72
2022-11-02T08:15:54.586Z,95.12
2022-11-02T08:18:27.845Z,93.16
2022-11-02T08:20:59.173Z,93.27
2022-11-02T08:23:27.585Z,90.79
2022-11-02T08:25:56.530Z,89.91
2022-11-02T08:28:26.761Z,89.20
2022-11-02T08:30:54.490Z,88.91
2022-11-02T08:33:22.335Z,86.96
2022-11-02T08:35:50.746Z,85.69
2022-11-02T08:38:18.598Z,85.13
2022-11-02T08:40:46.044Z,85.17
2022-11-02T08:43:15.680Z,84.20
2022-11-02T08:48:33.048Z,82.59
2022-11-02T08:51:01.643Z,81.70
2022-11-02T08:53:29.893Z,81.34
2022-11-02T08:55:59.001Z,81.02
2022-11-02T08:58:28.397Z,80.46
2022-11-02T09:00:55.826Z,79.96
2022-11-02T09:03:27.260Z,79.12
2022-11-02T09:06:02.617Z,79.03
2022-11-02T09:08:32.109Z,79.04
2022-11-02T09:11:02.130Z,78.29
2022-11-02T09:13:32.772Z,78.46
2022-11-02T09:16:01.137Z,78.12
2022-11-02T09:18:28.839Z,77.99
2022-11-02T09:20:57.073Z,77.66
2022-11-02T09:23:25.341Z,76.97
2022-11-02T09:25:52.850Z,77.19
2022-11-02T09:28:20.258Z,76.66
2022-11-02T09:30:47.714Z,75.49
2022-11-02T09:33:16.386Z,76.63
2022-11-02T09:35:46.746Z,77.33
2022-11-02T09:38:14.963Z,77.69
2022-11-02T09:40:48.606Z,78.47
2022-11-02T09:43:40.207Z,79.09
2022-11-02T09:46:12.700Z,78.72
2022-11-02T09:49:03.338Z,78.33
2022-11-02T09:51:37.119Z,77.68
2022-11-02T09:54:37.073Z,78.75
2022-11-02T09:57:13.357Z,79.18
2022-11-02T09:59:42.606Z,80.08
2022-11-02T10:02:44.004Z,79.43
2022-11-02T10:05:31.240Z,78.80
2022-11-02T10:08:07.571Z,78.72
2022-11-02T10:10:46.951Z,79.33
2022-11-02T10:14:04.889Z,79.56
2022-11-02T10:16:55.351Z,80.43
2022-11-02T10:19:27.885Z,81.07
2022-11-02T10:21:59.340Z,81.28
2022-11-02T10:24:37.759Z,81.24
2022-11-02T10:27:14.227Z,81.67
2022-11-02T10:30:01.854Z,82.55
2022-11-02T10:32:31.983Z,83.73
2022-11-02T10:35:17.927Z,84.46
2022-11-02T10:38:27.780Z,86.02
2022-11-02T10:41:19.518Z,86.53
2022-11-02T10:44:13.762Z,86.70
2022-11-02T10:46:50.634Z,86.01
2022-11-02T10:49:39.894Z,85.24
2022-11-02T10:52:15.734Z,85.35
2022-11-02T10:54:57.286Z,84.12
2022-11-02T10:57:26.773Z,83.05
2022-11-02T11:00:28.565Z,82.80
2022-11-02T11:03:13.933Z,82.84
2022-11-02T11:05:51.121Z,82.84
2022-11-02T11:08:41.416Z,82.64
2022-11-02T11:11:15.901Z,82.93
2022-11-02T11:16:47.595Z,82.38
2022-11-02T11:19:44.142Z,82.58
2022-11-02T11:22:22.080Z,83.16
2022-11-02T11:24:49.958Z,84.64
2022-11-02T11:27:24.261Z,84.36
2022-11-02T11:29:56.974Z,83.22
2022-11-02T11:32:30.462Z,84.23
2022-11-02T11:35:08.521Z,83.72
2022-11-02T11:37:36.711Z,84.50
2022-11-02T11:40:23.036Z,83.98
2022-11-02T11:42:52.321Z,83.77
2022-11-02T11:45:21.877Z,82.75
2022-11-02T11:48:06.893Z,83.18
2022-11-02T11:50:36.856Z,82.36
2022-11-02T11:53:22.585Z,82.87
2022-11-02T11:55:55.365Z,82.77
2022-11-02T11:58:26.812Z,82.65
2022-11-02T12:01:20.142Z,82.70
2022-11-02T12:03:52.930Z,82.09
2022-11-02T12:06:48.203Z,82.99
2022-11-02T12:09:37.330Z,83.69
2022-11-02T12:12:18.515Z,84.18
2022-11-02T12:15:28.004Z,85.29
2022-11-02T12:18:16.654Z,86.02
2022-11-02T12:21:11.380Z,85.45
2022-11-02T12:24:00.546Z,86.85
2022-11-02T12:26:58.758Z,87.25
2022-11-02T12:29:26.092Z,87.93
2022-11-02T12:32:28.537Z,89.37
2022-11-02T12:35:27.782Z,89.28
2022-11-02T12:38:28.078Z,92.85
2022-11-02T12:41:04.070Z,96.99
2022-11-02T12:43:39.426Z,100.00
2022-11-02T12:46:14.697Z,100.00
2022-11-02T12:49:03.291Z,100.00
2022-11-02T12:51:39.271Z,100.00
2022-11-02T12:54:12.745Z,100.00
2022-11-02T12:56:50.661Z,100.00
2022-11-02T12:59:19.234Z,100.00
2022-11-02T13:01:51.162Z,100.00
2022-11-02T13:04:27.935Z,100.00
2022-11-02T13:07:10.976Z,100.00
2022-11-02T13:09:51.539Z,100.00
2022-11-02T13:12:22.470Z,100.00
2022-11-02T13:14:53.882Z,100.00
2022-11-02T13:17:34.533Z,100.00
2022-11-02T13:20:17.154Z,100.00
2022-11-02T13:23:07.752Z,100.00
2022-11-02T13:25:54.770Z,100.00
2022-11-02T13:28:32.831Z,100.00
2022-11-02T13:31:08.556Z,100.00
2022-11-02T13:33:48.600Z,100.00
2022-11-02T13:36:18.372Z,99.75
2022-11-02T13:39:00.293Z,98.87
2022-11-02T13:41:48.447Z,98.08
2022-11-02T13:44:43.907Z,98.03
2022-11-02T13:47:42.922Z,98.35
2022-11-02T13:50:15.803Z,98.44
2022-11-02T13:52:56.266Z,98.79
2022-11-02T13:55:48.148Z,99.50
2022-11-02T13:58:24.844Z,99.59
2022-11-02T14:00:59.016Z,98.95
2022-11-02T14:03:43.091Z,99.64
2022-11-02T14:06:14.607Z,99.20
2022-11-02T14:08:49.444Z,99.03
2022-11-02T14:11:17.440Z,99.35
2022-11-02T14:13:52.385Z,99.44
2022-11-02T14:16:45.131Z,99.20
2022-11-02T14:19:20.561Z,99.50
2022-11-02T14:21:55.098Z,100.00
2022-11-02T14:24:34.080Z,100.00
2022-11-02T14:27:06.690Z,100.00
2022-11-02T14:29:47.072Z,100.00
2022-11-02T14:32:17.648Z,99.88
2022-11-02T14:35:04.897Z,99.52
2022-11-02T14:37:52.339Z,97.94
2022-11-02T14:40:57.408Z,96.80
2022-11-02T14:44:03.915Z,96.42
2022-11-02T14:46:49.367Z,95.50
2022-11-02T14:49:21.114Z,95.85
2022-11-02T14:52:15.121Z,95.90
2022-11-02T14:55:03.523Z,96.10
2022-11-02T14:57:40.881Z,95.99
2022-11-02T15:00:21.311Z,96.39
2022-11-02T15:02:51.629Z,97.00
2022-11-02T15:05:47.087Z,96.65
2022-11-02T15:08:27.164Z,96.98
2022-11-02T15:10:54.642Z,97.14
2022-11-02T15:13:23.320Z,97.94
2022-11-02T15:15:51.112Z,98.10
2022-11-02T15:18:31.911Z,97.96
2022-11-02T15:21:11.382Z,97.51
2022-11-02T15:23:51.269Z,97.52
2022-11-02T15:26:26.827Z,98.29
2022-11-02T15:28:59.122Z,98.37
2022-11-02T15:31:28.302Z,98.28
2022-11-02T15:33:59.954Z,98.27
2022-11-02T15:36:35.494Z,98.81
2022-11-02T15:39:10.766Z,97.88
2022-11-02T15:42:13.203Z,98.21
2022-11-02T15:45:09.343Z,100.00
2022-11-02T15:47:52.391Z,100.00
2022-11-02T15:50:45.625Z,100.00
2022-11-02T15:53:29.890Z,100.00
2022-11-02T15:56:19.072Z,100.00
2022-11-02T15:58:59.891Z,100.00
2022-11-02T16:01:29.796Z,100.00
2022-11-02T16:04:06.632Z,100.00
2022-11-02T16:06:43.151Z,100.00
2022-11-02T16:09:37.068Z,100.00
2022-11-02T16:12:18.971Z,100.00
2022-11-02T16:15:13.994Z,100.00
2022-11-02T16:17:42.348Z,100.00
2022-11-02T16:20:22.890Z,100.00
2022-11-02T16:22:55.159Z,100.00
2022-11-02T16:25:40.579Z,100.00
2022-11-02T16:28:20.671Z,100.00
2022-11-02T16:31:18.435Z,100.00
2022-11-02T16:33:50.882Z,100.00
2022-11-02T16:36:24.726Z,100.00
2022-11-02T16:38:56.525Z,100.00
2022-11-02T16:41:27.410Z,100.00
2022-11-02T16:43:56.974Z,100.00
2022-11-02T16:46:31.565Z,100.00
2022-11-02T16:49:16.325Z,100.00
2022-11-02T16:51:52.908Z,100.00
2022-11-02T16:54:34.020Z,100.00
2022-11-02T16:57:20.784Z,100.00
2022-11-02T16:59:55.895Z,100.00
2022-11-02T17:02:41.012Z,100.00
2022-11-02T17:05:19.544Z,100.00
2022-11-02T17:08:06.281Z,100.00
2022-11-02T17:10:36.346Z,100.00
2022-11-02T17:13:07.214Z,100.00
2022-11-02T17:15:37.561Z,100.00
2022-11-02T17:18:09.612Z,100.00
2022-11-02T17:20:39.397Z,100.00
2022-11-02T17:23:21.561Z,100.00
2022-11-02T17:25:50.861Z,100.00
2022-11-02T17:28:45.868Z,100.00
2022-11-02T17:31:22.578Z,100.00
2022-11-02T17:33:52.919Z,100.00
2022-11-02T17:36:22.144Z,100.00
2022-11-02T17:38:51.047Z,100.00
2022-11-02T17:41:37.584Z,100.00
2022-11-02T17:44:13.833Z,100.00
2022-11-02T17:46:44.773Z,100.00
2022-11-02T17:49:15.283Z,100.00
2022-11-02T17:51:43.150Z,100.00
2022-11-02T17:54:14.235Z,100.00
2022-11-02T17:56:42.073Z,100.00
2022-11-02T17:59:10.962Z,100.00
2022-11-02T18:01:39.219Z,100.00
2022-11-02T18:04:06.793Z,100.00
2022-11-02T18:06:34.311Z,100.00
2022-11-02T18:09:23.926Z,100.00
2022-11-02T18:11:53.867Z,100.00
2022-11-02T18:14:21.327Z,100.00
2022-11-02T18:16:50.646Z,100.00
2022-11-02T18:19:18.087Z,100.00
2022-11-02T18:21:45.522Z,100.00
2022-11-02T18:24:12.747Z,100.00
2022-11-02T18:26:42.739Z,100.00
2022-11-02T18:29:13.682Z,100.00
2022-11-02T18:31:41.703Z,100.00
2022-11-02T18:34:12.479Z,100.00
2022-11-02T18:36:40.964Z,100.00
2022-11-02T18:39:11.782Z,100.00
2022-11-02T18:41:42.982Z,100.00
2022-11-02T18:44:15.267Z,100.00
2022-11-02T18:46:43.115Z,100.00
2022-11-02T18:49:10.483Z,100.00
2022-11-02T18:51:43.166Z,100.00
2022-11-02T18:54:13.181Z,100.00
2022-11-02T18:56:40.899Z,100.00
2022-11-02T18:59:08.721Z,100.00
2022-11-02T19:01:37.532Z,100.00
2022-11-02T19:04:06.160Z,100.00
2022-11-02T19:06:52.491Z,100.00
2022-11-02T19:09:23.910Z,100.00
2022-11-02T19:12:01.158Z,100.00
2022-11-02T19:14:35.062Z,100.00
2022-11-02T19:17:03.828Z,100.00
2022-11-02T19:19:32.270Z,100.00
2022-11-02T19:22:00.285Z,100.00
2022-11-02T19:24:28.378Z,100.00
2022-11-02T19:26:56.758Z,100.00
2022-11-02T19:29:24.335Z,100.00
2022-11-02T19:31:54.073Z,100.00
2022-11-02T19:34:23.928Z,100.00
2022-11-02T19:36:52.193Z,100.00
2022-11-02T19:39:19.564Z,100.00
2022-11-02T19:41:51.828Z,100.00
2022-11-02T19:44:19.311Z,100.00
2022-11-02T19:46:50.884Z,100.00
2022-11-02T19:49:18.993Z,100.00
2022-11-02T19:51:46.496Z,100.00
2022-11-02T19:54:14.808Z,100.00
2022-11-02T19:56:42.568Z,100.00
2022-11-02T19:59:10.791Z,100.00
2022-11-02T20:01:42.855Z,100.00
2022-11-02T20:04:10.490Z,100.00
2022-11-02T20:06:40.684Z,100.00
2022-11-02T20:09:17.409Z,100.00
2022-11-02T20:11:46.932Z,100.00
2022-11-02T20:14:16.091Z,100.00
2022-11-02T20:16:45.309Z,100.00
2022-11-02T20:19:22.145Z,100.00
2022-11-02T20:21:51.233Z,100.00
2022-11-02T20:24:19.175Z,100.00
2022-11-02T20:26:46.394Z,100.00
2022-11-02T20:29:18.194Z,100.00
2022-11-02T20:31:52.097Z,100.00
2022-11-02T20:34:21.193Z,100.00
2022-11-02T20:36:49.937Z,100.00
2022-11-02T20:39:18.339Z,100.00
2022-11-02T20:41:45.763Z,100.00
2022-11-02T20:44:13.216Z,100.00
2022-11-02T20:46:42.208Z,100.00
2022-11-02T20:49:22.859Z,100.00
2022-11-02T20:51:59.729Z,100.00
2022-11-02T20:54:29.874Z,100.00
2022-11-02T20:56:58.930Z,100.00
2022-11-02T20:59:28.635Z,100.00
2022-11-02T21:01:57.167Z,100.00
2022-11-02T21:04:24.764Z,100.00
2022-11-02T21:06:53.047Z,100.00
2022-11-02T21:09:20.885Z,100.00
2022-11-02T21:12:07.541Z,100.00
2022-11-02T21:14:35.885Z,100.00
2022-11-02T21:17:05.722Z,100.00
2022-11-02T21:19:33.581Z,100.00
2022-11-02T21:22:01.396Z,100.00
2022-11-02T21:24:29.367Z,100.00
2022-11-02T21:26:59.566Z,100.00
2022-11-02T21:29:28.749Z,100.00
2022-11-02T21:31:56.345Z,100.00
2022-11-02T21:34:25.261Z,100.00
2022-11-02T21:36:53.249Z,100.00
2022-11-02T21:39:20.662Z,100.00
2022-11-02T21:41:48.279Z,100.00
2022-11-02T21:44:16.628Z,100.00
2022-11-02T21:46:46.689Z,100.00
2022-11-02T21:49:14.210Z,100.00
2022-11-02T21:51:42.993Z,100.00
2022-11-02T21:54:11.502Z,100.00
2022-11-02T21:56:39.736Z,100.00
2022-11-02T21:59:10.012Z,100.00
2022-11-02T22:01:44.454Z,100.00
2022-11-02T22:05:37.158Z,100.00
2022-11-02T22:08:23.983Z,100.00
2022-11-02T22:10:57.742Z,100.00
2022-11-02T22:13:34.811Z,100.00
2022-11-02T22:16:25.354Z,100.00
2022-11-02T22:18:57.824Z,100.00
2022-11-02T22:21:30.880Z,100.00
2022-11-02T22:24:00.576Z,100.00
2022-11-02T22:26:29.856Z,100.00
2022-11-02T22:28:58.175Z,100.00
2022-11-02T22:31:28.515Z,100.00
2022-11-02T22:33:58.371Z,100.00
2022-11-02T22:36:28.212Z,100.00
2022-11-02T22:38:58.689Z,100.00
2022-11-02T22:41:30.615Z,100.00
2022-11-02T22:43:59.390Z,100.00
2022-11-02T22:46:28.342Z,100.00
2022-11-02T22:49:01.531Z,100.00
2022-11-02T22:51:31.619Z,100.00
2022-11-02T22:54:06.706Z,100.00
2022-11-02T22:56:35.679Z,100.00
2022-11-02T22:59:04.236Z,100.00
2022-11-02T23:01:34.524Z,100.00
2022-11-02T23:04:03.299Z,100.00
2022-11-02T23:06:32.059Z,100.00
2022-11-02T23:09:00.164Z,100.00
2022-11-02T23:11:31.206Z,100.00
2022-11-02T23:14:12.626Z,100.00
2022-11-02T23:16:47.090Z,100.00
2022-11-02T23:19:28.328Z,100.00
2022-11-02T23:22:20.420Z,100.00
2022-11-02T23:25:13.125Z,100.00
2022-11-02T23:28:01.810Z,100.00
2022-11-02T23:30:55.021Z,100.00
2022-11-02T23:33:25.224Z,100.00
2022-11-02T23:36:11.233Z,100.00
2022-11-02T23:38:58.924Z,100.00
2022-11-02T23:41:27.517Z,100.00
2022-11-02T23:44:11.689Z,100.00
2022-11-02T23:46:54.128Z,100.00
2022-11-02T23:49:21.718Z,100.00
2022-11-02T23:52:08.956Z,100.00
2022-11-02T23:54:56.629Z,100.00
2022-11-02T23:57:26.370Z,100.00
2022-11-02T23:59:53.745Z,100.00
